Terminal Aerodrome Forecast
Issued by NWS

Home | Current Version | Previous Version | Text Only | Print | Product List | Glossary On
Versions: 1 2 3 4 5 6 7 8 9 10 11 12 13 14
000
FTUS45 KVEF 051723
TAFEED
TAF
KEED 051723Z 0518/0618 VRB06KT P6SM FEW150
     FM052000 20010G20KT P6SM SCT150
     FM060300 23011KT P6SM FEW150=

USA.gov is the U.S. government's official web portal to all federal, state and local government web resources and services.